sensor_id;sensor_type;location;lat;lon;timestamp;P1;durP1;ratioP1;P2;durP2;ratioP2
15035;SDS011;7615;48.574;13.474;2023-07-24T00:00:41;11.75;;;6.82;;
15035;SDS011;7615;48.574;13.474;2023-07-24T00:03:14;12.40;;;7.25;;
15035;SDS011;7615;48.574;13.474;2023-07-24T00:05:42;8.65;;;6.20;;
15035;SDS011;7615;48.574;13.474;2023-07-24T00:08:09;10.93;;;6.68;;
15035;SDS011;7615;48.574;13.474;2023-07-24T00:10:35;9.63;;;6.88;;
15035;SDS011;7615;48.574;13.474;2023-07-24T00:13:04;9.20;;;6.40;;
15035;SDS011;7615;48.574;13.474;2023-07-24T00:15:35;10.60;;;6.57;;
15035;SDS011;7615;48.574;13.474;2023-07-24T00:18:07;10.40;;;6.93;;
15035;SDS011;7615;48.574;13.474;2023-07-24T00:20:36;11.88;;;6.43;;
15035;SDS011;7615;48.574;13.474;2023-07-24T00:23:12;12.43;;;6.85;;
15035;SDS011;7615;48.574;13.474;2023-07-24T00:25:46;13.88;;;6.97;;
15035;SDS011;7615;48.574;13.474;2023-07-24T00:28:13;9.52;;;6.65;;
15035;SDS011;7615;48.574;13.474;2023-07-24T00:30:41;10.48;;;6.97;;
15035;SDS011;7615;48.574;13.474;2023-07-24T00:33:10;10.60;;;6.82;;
15035;SDS011;7615;48.574;13.474;2023-07-24T00:35:37;10.63;;;7.10;;
15035;SDS011;7615;48.574;13.474;2023-07-24T00:38:04;11.10;;;7.03;;
15035;SDS011;7615;48.574;13.474;2023-07-24T00:40:31;11.77;;;6.38;;
15035;SDS011;7615;48.574;13.474;2023-07-24T00:42:58;9.15;;;6.72;;
15035;SDS011;7615;48.574;13.474;2023-07-24T00:45:25;10.27;;;6.85;;
15035;SDS011;7615;48.574;13.474;2023-07-24T00:47:52;11.77;;;6.95;;
15035;SDS011;7615;48.574;13.474;2023-07-24T00:50:21;11.13;;;7.50;;
15035;SDS011;7615;48.574;13.474;2023-07-24T00:52:48;13.57;;;6.85;;
15035;SDS011;7615;48.574;13.474;2023-07-24T00:55:15;10.60;;;6.72;;
15035;SDS011;7615;48.574;13.474;2023-07-24T00:57:43;9.70;;;6.50;;
15035;SDS011;7615;48.574;13.474;2023-07-24T01:00:10;9.73;;;6.80;;
15035;SDS011;7615;48.574;13.474;2023-07-24T01:02:38;10.82;;;7.45;;
15035;SDS011;7615;48.574;13.474;2023-07-24T01:05:05;10.75;;;6.78;;
15035;SDS011;7615;48.574;13.474;2023-07-24T01:07:35;11.10;;;6.65;;
15035;SDS011;7615;48.574;13.474;2023-07-24T01:10:02;9.40;;;6.47;;
15035;SDS011;7615;48.574;13.474;2023-07-24T01:12:31;11.85;;;7.10;;
15035;SDS011;7615;48.574;13.474;2023-07-24T01:15:03;11.45;;;6.75;;
15035;SDS011;7615;48.574;13.474;2023-07-24T01:17:34;11.10;;;7.45;;
15035;SDS011;7615;48.574;13.474;2023-07-24T01:20:09;11.95;;;7.22;;
15035;SDS011;7615;48.574;13.474;2023-07-24T01:22:44;13.88;;;6.80;;
15035;SDS011;7615;48.574;13.474;2023-07-24T01:25:18;16.02;;;7.43;;
15035;SDS011;7615;48.574;13.474;2023-07-24T01:27:55;11.27;;;6.57;;
15035;SDS011;7615;48.574;13.474;2023-07-24T01:30:22;10.60;;;7.10;;
15035;SDS011;7615;48.574;13.474;2023-07-24T01:32:49;9.50;;;6.63;;
15035;SDS011;7615;48.574;13.474;2023-07-24T01:35:16;11.13;;;7.20;;
15035;SDS011;7615;48.574;13.474;2023-07-24T01:37:43;15.05;;;6.93;;
15035;SDS011;7615;48.574;13.474;2023-07-24T01:40:11;11.73;;;6.65;;
15035;SDS011;7615;48.574;13.474;2023-07-24T01:42:39;11.27;;;7.20;;
15035;SDS011;7615;48.574;13.474;2023-07-24T01:45:08;9.50;;;7.18;;
15035;SDS011;7615;48.574;13.474;2023-07-24T01:47:36;10.05;;;7.07;;
15035;SDS011;7615;48.574;13.474;2023-07-24T01:50:03;10.75;;;6.95;;
15035;SDS011;7615;48.574;13.474;2023-07-24T01:52:31;9.85;;;6.65;;
15035;SDS011;7615;48.574;13.474;2023-07-24T01:54:58;8.90;;;6.82;;
15035;SDS011;7615;48.574;13.474;2023-07-24T01:57:24;11.52;;;6.63;;
15035;SDS011;7615;48.574;13.474;2023-07-24T01:59:51;9.65;;;6.78;;
15035;SDS011;7615;48.574;13.474;2023-07-24T02:02:20;11.02;;;7.07;;
15035;SDS011;7615;48.574;13.474;2023-07-24T02:04:46;11.10;;;7.18;;
15035;SDS011;7615;48.574;13.474;2023-07-24T02:07:13;11.70;;;7.07;;
15035;SDS011;7615;48.574;13.474;2023-07-24T02:09:40;14.02;;;7.07;;
15035;SDS011;7615;48.574;13.474;2023-07-24T02:12:07;10.60;;;6.93;;
15035;SDS011;7615;48.574;13.474;2023-07-24T02:14:34;13.15;;;7.20;;
15035;SDS011;7615;48.574;13.474;2023-07-24T02:17:01;9.55;;;6.40;;
15035;SDS011;7615;48.574;13.474;2023-07-24T02:19:30;11.85;;;6.85;;
15035;SDS011;7615;48.574;13.474;2023-07-24T02:21:57;10.13;;;6.85;;
15035;SDS011;7615;48.574;13.474;2023-07-24T02:24:23;11.02;;;6.80;;
15035;SDS011;7615;48.574;13.474;2023-07-24T02:26:51;10.80;;;7.40;;
15035;SDS011;7615;48.574;13.474;2023-07-24T02:29:18;13.27;;;7.18;;
15035;SDS011;7615;48.574;13.474;2023-07-24T02:31:45;11.05;;;7.32;;
15035;SDS011;7615;48.574;13.474;2023-07-24T02:34:12;13.27;;;8.10;;
15035;SDS011;7615;48.574;13.474;2023-07-24T02:36:40;12.45;;;6.88;;
15035;SDS011;7615;48.574;13.474;2023-07-24T02:39:07;11.07;;;7.75;;
15035;SDS011;7615;48.574;13.474;2023-07-24T02:41:34;12.88;;;7.20;;
15035;SDS011;7615;48.574;13.474;2023-07-24T02:44:02;10.45;;;7.47;;
15035;SDS011;7615;48.574;13.474;2023-07-24T02:46:29;10.30;;;7.55;;
15035;SDS011;7615;48.574;13.474;2023-07-24T02:48:56;13.55;;;7.75;;
15035;SDS011;7615;48.574;13.474;2023-07-24T02:51:23;14.38;;;7.53;;
15035;SDS011;7615;48.574;13.474;2023-07-24T02:53:53;12.32;;;6.88;;
15035;SDS011;7615;48.574;13.474;2023-07-24T02:56:20;9.13;;;6.45;;
15035;SDS011;7615;48.574;13.474;2023-07-24T02:58:47;8.45;;;6.47;;
15035;SDS011;7615;48.574;13.474;2023-07-24T03:01:14;13.27;;;7.60;;
15035;SDS011;7615;48.574;13.474;2023-07-24T03:03:41;10.02;;;6.82;;
15035;SDS011;7615;48.574;13.474;2023-07-24T03:06:08;10.50;;;6.80;;
15035;SDS011;7615;48.574;13.474;2023-07-24T03:08:35;10.93;;;7.15;;
15035;SDS011;7615;48.574;13.474;2023-07-24T03:11:05;11.23;;;7.57;;
15035;SDS011;7615;48.574;13.474;2023-07-24T03:13:34;13.15;;;6.97;;
15035;SDS011;7615;48.574;13.474;2023-07-24T03:16:01;15.50;;;7.30;;
15035;SDS011;7615;48.574;13.474;2023-07-24T03:18:27;9.90;;;7.18;;
15035;SDS011;7615;48.574;13.474;2023-07-24T03:20:56;10.75;;;6.93;;
15035;SDS011;7615;48.574;13.474;2023-07-24T03:23:23;11.00;;;7.07;;
15035;SDS011;7615;48.574;13.474;2023-07-24T03:25:51;12.07;;;7.35;;
15035;SDS011;7615;48.574;13.474;2023-07-24T03:28:19;10.55;;;7.25;;
15035;SDS011;7615;48.574;13.474;2023-07-24T03:30:46;13.90;;;7.05;;
15035;SDS011;7615;48.574;13.474;2023-07-24T03:33:14;9.88;;;6.82;;
15035;SDS011;7615;48.574;13.474;2023-07-24T03:35:42;10.13;;;6.93;;
15035;SDS011;7615;48.574;13.474;2023-07-24T03:38:09;9.80;;;6.78;;
15035;SDS011;7615;48.574;13.474;2023-07-24T03:40:36;8.77;;;6.55;;
15035;SDS011;7615;48.574;13.474;2023-07-24T03:43:03;12.00;;;7.57;;
15035;SDS011;7615;48.574;13.474;2023-07-24T03:45:32;10.55;;;7.40;;
15035;SDS011;7615;48.574;13.474;2023-07-24T03:47:59;11.45;;;7.43;;
15035;SDS011;7615;48.574;13.474;2023-07-24T03:50:28;10.73;;;6.95;;
15035;SDS011;7615;48.574;13.474;2023-07-24T03:52:55;14.02;;;8.18;;
15035;SDS011;7615;48.574;13.474;2023-07-24T03:55:22;13.70;;;7.55;;
15035;SDS011;7615;48.574;13.474;2023-07-24T03:57:49;8.88;;;6.95;;
15035;SDS011;7615;48.574;13.474;2023-07-24T04:00:16;12.30;;;7.32;;
15035;SDS011;7615;48.574;13.474;2023-07-24T04:02:45;11.52;;;7.20;;
15035;SDS011;7615;48.574;13.474;2023-07-24T04:05:13;10.82;;;7.18;;
15035;SDS011;7615;48.574;13.474;2023-07-24T04:07:40;12.07;;;7.43;;
15035;SDS011;7615;48.574;13.474;2023-07-24T04:10:07;12.85;;;7.18;;
15035;SDS011;7615;48.574;13.474;2023-07-24T04:12:35;9.75;;;6.88;;
15035;SDS011;7615;48.574;13.474;2023-07-24T04:15:02;12.57;;;7.45;;
15035;SDS011;7615;48.574;13.474;2023-07-24T04:17:29;12.00;;;7.13;;
15035;SDS011;7615;48.574;13.474;2023-07-24T04:19:58;11.35;;;7.10;;
15035;SDS011;7615;48.574;13.474;2023-07-24T04:22:25;12.23;;;7.72;;
15035;SDS011;7615;48.574;13.474;2023-07-24T04:24:52;11.85;;;7.43;;
15035;SDS011;7615;48.574;13.474;2023-07-24T04:27:19;11.68;;;7.80;;
15035;SDS011;7615;48.574;13.474;2023-07-24T04:29:46;10.77;;;7.13;;
15035;SDS011;7615;48.574;13.474;2023-07-24T04:32:13;9.65;;;7.22;;
15035;SDS011;7615;48.574;13.474;2023-07-24T04:34:40;13.52;;;7.35;;
15035;SDS011;7615;48.574;13.474;2023-07-24T04:37:08;13.70;;;8.95;;
15035;SDS011;7615;48.574;13.474;2023-07-24T04:39:37;13.85;;;8.27;;
15035;SDS011;7615;48.574;13.474;2023-07-24T04:42:05;11.25;;;7.43;;
15035;SDS011;7615;48.574;13.474;2023-07-24T04:44:32;10.63;;;7.72;;
15035;SDS011;7615;48.574;13.474;2023-07-24T04:46:59;10.30;;;7.25;;
15035;SDS011;7615;48.574;13.474;2023-07-24T04:49:29;9.98;;;6.93;;
15035;SDS011;7615;48.574;13.474;2023-07-24T04:51:57;11.52;;;7.20;;
15035;SDS011;7615;48.574;13.474;2023-07-24T04:54:34;11.20;;;7.53;;
15035;SDS011;7615;48.574;13.474;2023-07-24T04:57:01;15.48;;;7.70;;
15035;SDS011;7615;48.574;13.474;2023-07-24T04:59:28;13.52;;;7.10;;
15035;SDS011;7615;48.574;13.474;2023-07-24T05:01:54;10.40;;;7.50;;
15035;SDS011;7615;48.574;13.474;2023-07-24T05:04:22;9.90;;;7.03;;
15035;SDS011;7615;48.574;13.474;2023-07-24T05:06:49;11.13;;;6.82;;
15035;SDS011;7615;48.574;13.474;2023-07-24T05:09:17;12.18;;;6.80;;
15035;SDS011;7615;48.574;13.474;2023-07-24T05:11:45;9.98;;;6.53;;
15035;SDS011;7615;48.574;13.474;2023-07-24T05:14:16;11.90;;;7.20;;
15035;SDS011;7615;48.574;13.474;2023-07-24T05:16:43;10.63;;;7.00;;
15035;SDS011;7615;48.574;13.474;2023-07-24T05:19:09;11.90;;;7.22;;
15035;SDS011;7615;48.574;13.474;2023-07-24T05:21:36;14.13;;;7.15;;
15035;SDS011;7615;48.574;13.474;2023-07-24T05:24:03;13.30;;;7.72;;
15035;SDS011;7615;48.574;13.474;2023-07-24T05:26:30;39.40;;;7.80;;
15035;SDS011;7615;48.574;13.474;2023-07-24T05:28:59;46.80;;;8.27;;
15035;SDS011;7615;48.574;13.474;2023-07-24T05:31:25;16.38;;;6.75;;
15035;SDS011;7615;48.574;13.474;2023-07-24T05:33:52;12.82;;;7.07;;
15035;SDS011;7615;48.574;13.474;2023-07-24T05:36:19;12.35;;;6.72;;
15035;SDS011;7615;48.574;13.474;2023-07-24T05:38:46;16.05;;;8.18;;
15035;SDS011;7615;48.574;13.474;2023-07-24T05:41:13;15.02;;;7.50;;
15035;SDS011;7615;48.574;13.474;2023-07-24T05:43:40;14.45;;;8.10;;
15035;SDS011;7615;48.574;13.474;2023-07-24T05:46:09;13.48;;;7.47;;
15035;SDS011;7615;48.574;13.474;2023-07-24T05:48:36;12.45;;;7.53;;
15035;SDS011;7615;48.574;13.474;2023-07-24T05:51:03;13.88;;;7.30;;
15035;SDS011;7615;48.574;13.474;2023-07-24T05:53:31;12.55;;;6.93;;
15035;SDS011;7615;48.574;13.474;2023-07-24T05:55:59;17.90;;;8.43;;
15035;SDS011;7615;48.574;13.474;2023-07-24T05:58:26;9.43;;;6.68;;
15035;SDS011;7615;48.574;13.474;2023-07-24T06:00:53;12.45;;;7.05;;
15035;SDS011;7615;48.574;13.474;2023-07-24T06:03:22;11.52;;;6.88;;
15035;SDS011;7615;48.574;13.474;2023-07-24T06:05:52;11.27;;;6.55;;
15035;SDS011;7615;48.574;13.474;2023-07-24T06:08:19;9.73;;;7.00;;
15035;SDS011;7615;48.574;13.474;2023-07-24T06:10:47;11.98;;;6.85;;
15035;SDS011;7615;48.574;13.474;2023-07-24T06:13:26;8.55;;;6.40;;
15035;SDS011;7615;48.574;13.474;2023-07-24T06:15:54;11.63;;;7.05;;
15035;SDS011;7615;48.574;13.474;2023-07-24T06:18:23;10.15;;;6.63;;
15035;SDS011;7615;48.574;13.474;2023-07-24T06:20:52;10.20;;;6.70;;
15035;SDS011;7615;48.574;13.474;2023-07-24T06:23:19;10.88;;;6.72;;
15035;SDS011;7615;48.574;13.474;2023-07-24T06:25:47;12.57;;;6.88;;
15035;SDS011;7615;48.574;13.474;2023-07-24T06:28:14;8.70;;;6.65;;
15035;SDS011;7615;48.574;13.474;2023-07-24T06:30:41;8.95;;;6.60;;
15035;SDS011;7615;48.574;13.474;2023-07-24T06:33:09;10.32;;;6.70;;
15035;SDS011;7615;48.574;13.474;2023-07-24T06:35:40;8.90;;;6.53;;
15035;SDS011;7615;48.574;13.474;2023-07-24T06:38:07;15.15;;;6.60;;
15035;SDS011;7615;48.574;13.474;2023-07-24T06:40:46;8.65;;;6.35;;
15035;SDS011;7615;48.574;13.474;2023-07-24T06:43:13;10.93;;;6.40;;
15035;SDS011;7615;48.574;13.474;2023-07-24T06:45:41;9.00;;;6.32;;
15035;SDS011;7615;48.574;13.474;2023-07-24T06:48:29;10.35;;;6.88;;
15035;SDS011;7615;48.574;13.474;2023-07-24T06:54:18;9.60;;;6.35;;
15035;SDS011;7615;48.574;13.474;2023-07-24T06:56:48;8.73;;;6.30;;
15035;SDS011;7615;48.574;13.474;2023-07-24T06:59:16;8.20;;;6.10;;
15035;SDS011;7615;48.574;13.474;2023-07-24T07:01:43;8.52;;;6.28;;
15035;SDS011;7615;48.574;13.474;2023-07-24T07:04:10;8.73;;;6.00;;
15035;SDS011;7615;48.574;13.474;2023-07-24T07:06:37;8.45;;;6.15;;
15035;SDS011;7615;48.574;13.474;2023-07-24T07:09:04;10.85;;;6.47;;
15035;SDS011;7615;48.574;13.474;2023-07-24T07:11:32;9.10;;;6.47;;
15035;SDS011;7615;48.574;13.474;2023-07-24T07:13:59;9.75;;;6.25;;
15035;SDS011;7615;48.574;13.474;2023-07-24T07:16:26;8.07;;;6.07;;
15035;SDS011;7615;48.574;13.474;2023-07-24T07:18:53;8.80;;;6.18;;
15035;SDS011;7615;48.574;13.474;2023-07-24T07:21:20;10.75;;;6.50;;
15035;SDS011;7615;48.574;13.474;2023-07-24T07:23:47;10.57;;;6.25;;
15035;SDS011;7615;48.574;13.474;2023-07-24T07:26:14;10.30;;;6.45;;
15035;SDS011;7615;48.574;13.474;2023-07-24T07:28:42;11.73;;;6.45;;
15035;SDS011;7615;48.574;13.474;2023-07-24T07:31:10;35.17;;;7.00;;
15035;SDS011;7615;48.574;13.474;2023-07-24T07:33:37;13.23;;;6.45;;
15035;SDS011;7615;48.574;13.474;2023-07-24T07:36:04;12.68;;;6.43;;
15035;SDS011;7615;48.574;13.474;2023-07-24T07:38:32;9.32;;;6.45;;
15035;SDS011;7615;48.574;13.474;2023-07-24T07:41:03;11.88;;;6.50;;
15035;SDS011;7615;48.574;13.474;2023-07-24T07:43:30;11.30;;;6.57;;
15035;SDS011;7615;48.574;13.474;2023-07-24T07:46:01;10.88;;;6.80;;
15035;SDS011;7615;48.574;13.474;2023-07-24T07:48:28;10.77;;;6.97;;
15035;SDS011;7615;48.574;13.474;2023-07-24T07:50:55;14.45;;;7.20;;
15035;SDS011;7615;48.574;13.474;2023-07-24T07:53:21;14.63;;;7.22;;
15035;SDS011;7615;48.574;13.474;2023-07-24T07:55:55;11.23;;;7.30;;
15035;SDS011;7615;48.574;13.474;2023-07-24T07:58:22;11.55;;;6.78;;
15035;SDS011;7615;48.574;13.474;2023-07-24T08:00:49;12.02;;;7.38;;
15035;SDS011;7615;48.574;13.474;2023-07-24T08:03:18;10.05;;;6.97;;
15035;SDS011;7615;48.574;13.474;2023-07-24T08:05:45;8.23;;;6.00;;
15035;SDS011;7615;48.574;13.474;2023-07-24T08:08:12;12.65;;;6.22;;
15035;SDS011;7615;48.574;13.474;2023-07-24T08:10:39;53.10;;;13.48;;
15035;SDS011;7615;48.574;13.474;2023-07-24T08:13:06;57.80;;;13.77;;
15035;SDS011;7615;48.574;13.474;2023-07-24T08:15:34;16.65;;;7.53;;
15035;SDS011;7615;48.574;13.474;2023-07-24T08:18:01;11.20;;;6.07;;
15035;SDS011;7615;48.574;13.474;2023-07-24T08:20:30;10.88;;;6.00;;
15035;SDS011;7615;48.574;13.474;2023-07-24T08:22:57;8.30;;;6.05;;
15035;SDS011;7615;48.574;13.474;2023-07-24T08:25:24;8.00;;;5.95;;
15035;SDS011;7615;48.574;13.474;2023-07-24T08:27:51;16.25;;;10.20;;
15035;SDS011;7615;48.574;13.474;2023-07-24T08:30:21;12.35;;;7.13;;
15035;SDS011;7615;48.574;13.474;2023-07-24T08:32:48;9.98;;;7.13;;
15035;SDS011;7615;48.574;13.474;2023-07-24T08:35:16;9.80;;;7.10;;
15035;SDS011;7615;48.574;13.474;2023-07-24T08:37:44;20.25;;;7.40;;
15035;SDS011;7615;48.574;13.474;2023-07-24T08:40:12;11.90;;;8.27;;
15035;SDS011;7615;48.574;13.474;2023-07-24T08:42:39;12.88;;;7.60;;
15035;SDS011;7615;48.574;13.474;2023-07-24T08:45:08;7.32;;;5.60;;
15035;SDS011;7615;48.574;13.474;2023-07-24T08:47:41;8.63;;;6.20;;
15035;SDS011;7615;48.574;13.474;2023-07-24T08:50:11;11.55;;;5.72;;
15035;SDS011;7615;48.574;13.474;2023-07-24T08:52:40;7.78;;;5.40;;
15035;SDS011;7615;48.574;13.474;2023-07-24T08:55:13;17.95;;;6.97;;
15035;SDS011;7615;48.574;13.474;2023-07-24T08:57:41;8.07;;;5.43;;
15035;SDS011;7615;48.574;13.474;2023-07-24T09:00:08;9.25;;;6.00;;
15035;SDS011;7615;48.574;13.474;2023-07-24T09:02:35;8.52;;;5.65;;
15035;SDS011;7615;48.574;13.474;2023-07-24T09:05:02;6.70;;;5.15;;
15035;SDS011;7615;48.574;13.474;2023-07-24T09:07:30;6.47;;;5.10;;
15035;SDS011;7615;48.574;13.474;2023-07-24T09:09:58;10.50;;;5.30;;
15035;SDS011;7615;48.574;13.474;2023-07-24T09:12:26;8.40;;;5.57;;
15035;SDS011;7615;48.574;13.474;2023-07-24T09:15:02;7.85;;;5.55;;
15035;SDS011;7615;48.574;13.474;2023-07-24T09:17:30;9.32;;;5.65;;
15035;SDS011;7615;48.574;13.474;2023-07-24T09:19:57;8.13;;;6.03;;
15035;SDS011;7615;48.574;13.474;2023-07-24T09:22:23;9.45;;;6.25;;
15035;SDS011;7615;48.574;13.474;2023-07-24T09:24:53;12.65;;;5.72;;
15035;SDS011;7615;48.574;13.474;2023-07-24T09:27:20;8.50;;;5.72;;
15035;SDS011;7615;48.574;13.474;2023-07-24T09:29:49;11.32;;;6.10;;
15035;SDS011;7615;48.574;13.474;2023-07-24T09:32:20;8.90;;;5.50;;
15035;SDS011;7615;48.574;13.474;2023-07-24T09:34:48;10.38;;;5.72;;
15035;SDS011;7615;48.574;13.474;2023-07-24T09:37:26;8.50;;;6.20;;
15035;SDS011;7615;48.574;13.474;2023-07-24T09:39:53;14.32;;;6.05;;
15035;SDS011;7615;48.574;13.474;2023-07-24T09:42:27;11.23;;;5.97;;
15035;SDS011;7615;48.574;13.474;2023-07-24T09:44:55;8.07;;;6.00;;
15035;SDS011;7615;48.574;13.474;2023-07-24T09:47:25;11.13;;;6.60;;
15035;SDS011;7615;48.574;13.474;2023-07-24T09:49:53;13.98;;;6.28;;
15035;SDS011;7615;48.574;13.474;2023-07-24T09:52:21;13.43;;;6.57;;
15035;SDS011;7615;48.574;13.474;2023-07-24T09:54:51;11.27;;;6.57;;
15035;SDS011;7615;48.574;13.474;2023-07-24T09:57:22;10.15;;;5.95;;
15035;SDS011;7615;48.574;13.474;2023-07-24T09:59:50;8.82;;;6.50;;
15035;SDS011;7615;48.574;13.474;2023-07-24T10:02:20;10.90;;;6.03;;
15035;SDS011;7615;48.574;13.474;2023-07-24T10:04:48;9.48;;;6.30;;
15035;SDS011;7615;48.574;13.474;2023-07-24T10:07:15;8.77;;;6.07;;
15035;SDS011;7615;48.574;13.474;2023-07-24T10:09:46;9.05;;;5.63;;
15035;SDS011;7615;48.574;13.474;2023-07-24T10:12:14;8.32;;;5.50;;
15035;SDS011;7615;48.574;13.474;2023-07-24T10:14:42;6.90;;;5.10;;
15035;SDS011;7615;48.574;13.474;2023-07-24T10:17:10;8.63;;;4.90;;
15035;SDS011;7615;48.574;13.474;2023-07-24T10:19:40;5.32;;;4.57;;
15035;SDS011;7615;48.574;13.474;2023-07-24T10:22:08;6.43;;;4.70;;
15035;SDS011;7615;48.574;13.474;2023-07-24T10:24:35;5.53;;;4.70;;
15035;SDS011;7615;48.574;13.474;2023-07-24T10:27:03;6.80;;;4.47;;
15035;SDS011;7615;48.574;13.474;2023-07-24T10:29:35;7.22;;;4.68;;
15035;SDS011;7615;48.574;13.474;2023-07-24T10:32:03;5.53;;;4.70;;
15035;SDS011;7615;48.574;13.474;2023-07-24T10:34:36;9.15;;;4.60;;
15035;SDS011;7615;48.574;13.474;2023-07-24T10:37:06;6.63;;;4.90;;
15035;SDS011;7615;48.574;13.474;2023-07-24T10:39:37;7.25;;;5.13;;
15035;SDS011;7615;48.574;13.474;2023-07-24T10:42:06;9.32;;;5.22;;
15035;SDS011;7615;48.574;13.474;2023-07-24T10:44:34;7.18;;;5.60;;
15035;SDS011;7615;48.574;13.474;2023-07-24T10:47:03;7.15;;;4.88;;
15035;SDS011;7615;48.574;13.474;2023-07-24T10:49:31;24.42;;;10.52;;
15035;SDS011;7615;48.574;13.474;2023-07-24T10:51:58;10.60;;;6.35;;
15035;SDS011;7615;48.574;13.474;2023-07-24T10:54:27;6.80;;;5.13;;
15035;SDS011;7615;48.574;13.474;2023-07-24T10:56:57;7.82;;;5.53;;
15035;SDS011;7615;48.574;13.474;2023-07-24T10:59:35;9.93;;;5.97;;
15035;SDS011;7615;48.574;13.474;2023-07-24T11:02:03;8.55;;;5.28;;
15035;SDS011;7615;48.574;13.474;2023-07-24T11:04:31;10.43;;;5.72;;
15035;SDS011;7615;48.574;13.474;2023-07-24T11:06:59;6.95;;;4.75;;
15035;SDS011;7615;48.574;13.474;2023-07-24T11:09:37;5.65;;;4.65;;
15035;SDS011;7615;48.574;13.474;2023-07-24T11:12:12;7.75;;;5.43;;
15035;SDS011;7615;48.574;13.474;2023-07-24T11:14:46;8.27;;;5.15;;
15035;SDS011;7615;48.574;13.474;2023-07-24T11:17:13;5.57;;;4.85;;
15035;SDS011;7615;48.574;13.474;2023-07-24T11:19:40;7.43;;;5.60;;
15035;SDS011;7615;48.574;13.474;2023-07-24T11:22:07;6.85;;;5.35;;
15035;SDS011;7615;48.574;13.474;2023-07-24T11:24:43;8.00;;;5.68;;
15035;SDS011;7615;48.574;13.474;2023-07-24T11:27:12;7.10;;;5.05;;
15035;SDS011;7615;48.574;13.474;2023-07-24T11:29:40;6.85;;;4.95;;
15035;SDS011;7615;48.574;13.474;2023-07-24T11:32:08;6.78;;;5.05;;
15035;SDS011;7615;48.574;13.474;2023-07-24T11:34:35;6.28;;;5.15;;
15035;SDS011;7615;48.574;13.474;2023-07-24T11:37:03;8.07;;;4.93;;
15035;SDS011;7615;48.574;13.474;2023-07-24T11:39:30;6.78;;;5.10;;
15035;SDS011;7615;48.574;13.474;2023-07-24T11:42:00;10.82;;;5.35;;
15035;SDS011;7615;48.574;13.474;2023-07-24T11:44:28;7.68;;;5.32;;
15035;SDS011;7615;48.574;13.474;2023-07-24T11:47:01;6.45;;;5.07;;
15035;SDS011;7615;48.574;13.474;2023-07-24T11:49:29;11.25;;;5.22;;
15035;SDS011;7615;48.574;13.474;2023-07-24T11:51:59;9.00;;;5.05;;
15035;SDS011;7615;48.574;13.474;2023-07-24T11:54:27;7.28;;;5.30;;
15035;SDS011;7615;48.574;13.474;2023-07-24T11:56:54;7.30;;;5.65;;
15035;SDS011;7615;48.574;13.474;2023-07-24T11:59:22;8.57;;;5.80;;
15035;SDS011;7615;48.574;13.474;2023-07-24T12:01:50;6.78;;;5.30;;
15035;SDS011;7615;48.574;13.474;2023-07-24T12:04:17;6.60;;;5.55;;
15035;SDS011;7615;48.574;13.474;2023-07-24T12:06:45;9.57;;;5.35;;
15035;SDS011;7615;48.574;13.474;2023-07-24T12:09:12;8.73;;;5.30;;
15035;SDS011;7615;48.574;13.474;2023-07-24T12:11:40;6.75;;;5.22;;
15035;SDS011;7615;48.574;13.474;2023-07-24T12:14:07;7.13;;;5.00;;
15035;SDS011;7615;48.574;13.474;2023-07-24T12:16:35;7.10;;;5.47;;
15035;SDS011;7615;48.574;13.474;2023-07-24T12:19:02;7.72;;;5.43;;
15035;SDS011;7615;48.574;13.474;2023-07-24T12:21:29;5.55;;;4.95;;
15035;SDS011;7615;48.574;13.474;2023-07-24T12:23:58;7.32;;;5.05;;
15035;SDS011;7615;48.574;13.474;2023-07-24T12:26:24;8.13;;;4.97;;
15035;SDS011;7615;48.574;13.474;2023-07-24T12:28:52;7.43;;;5.72;;
15035;SDS011;7615;48.574;13.474;2023-07-24T12:31:19;6.57;;;4.68;;
15035;SDS011;7615;48.574;13.474;2023-07-24T12:33:47;5.03;;;4.45;;
15035;SDS011;7615;48.574;13.474;2023-07-24T12:36:14;13.35;;;4.63;;
15035;SDS011;7615;48.574;13.474;2023-07-24T12:38:41;4.70;;;4.07;;
15035;SDS011;7615;48.574;13.474;2023-07-24T12:41:08;6.22;;;4.40;;
15035;SDS011;7615;48.574;13.474;2023-07-24T12:43:35;5.00;;;4.28;;
15035;SDS011;7615;48.574;13.474;2023-07-24T12:46:02;6.45;;;4.78;;
15035;SDS011;7615;48.574;13.474;2023-07-24T12:48:29;5.35;;;4.35;;
15035;SDS011;7615;48.574;13.474;2023-07-24T12:50:58;7.40;;;4.40;;
15035;SDS011;7615;48.574;13.474;2023-07-24T12:53:27;5.63;;;4.40;;
15035;SDS011;7615;48.574;13.474;2023-07-24T12:55:54;5.78;;;4.03;;
15035;SDS011;7615;48.574;13.474;2023-07-24T12:58:21;8.20;;;4.90;;
15035;SDS011;7615;48.574;13.474;2023-07-24T13:00:48;10.32;;;4.95;;
15035;SDS011;7615;48.574;13.474;2023-07-24T13:03:17;8.65;;;5.18;;
15035;SDS011;7615;48.574;13.474;2023-07-24T13:05:44;8.10;;;5.05;;
15035;SDS011;7615;48.574;13.474;2023-07-24T13:08:12;8.02;;;4.80;;
15035;SDS011;7615;48.574;13.474;2023-07-24T13:10:39;5.30;;;4.40;;
15035;SDS011;7615;48.574;13.474;2023-07-24T13:13:06;7.15;;;5.32;;
15035;SDS011;7615;48.574;13.474;2023-07-24T13:15:34;9.38;;;5.35;;
15035;SDS011;7615;48.574;13.474;2023-07-24T13:18:01;5.43;;;4.40;;
15035;SDS011;7615;48.574;13.474;2023-07-24T13:20:29;5.88;;;4.57;;
15035;SDS011;7615;48.574;13.474;2023-07-24T13:22:56;9.07;;;4.00;;
15035;SDS011;7615;48.574;13.474;2023-07-24T13:25:24;59.95;;;6.40;;
15035;SDS011;7615;48.574;13.474;2023-07-24T13:27:52;11.55;;;4.82;;
15035;SDS011;7615;48.574;13.474;2023-07-24T13:30:19;6.57;;;4.45;;
15035;SDS011;7615;48.574;13.474;2023-07-24T13:32:47;7.68;;;4.32;;
15035;SDS011;7615;48.574;13.474;2023-07-24T13:35:14;7.10;;;4.80;;
15035;SDS011;7615;48.574;13.474;2023-07-24T13:37:42;7.45;;;4.32;;
15035;SDS011;7615;48.574;13.474;2023-07-24T13:40:09;10.48;;;4.13;;
15035;SDS011;7615;48.574;13.474;2023-07-24T13:42:38;5.05;;;4.00;;
15035;SDS011;7615;48.574;13.474;2023-07-24T13:45:06;4.75;;;3.58;;
15035;SDS011;7615;48.574;13.474;2023-07-24T13:47:33;5.68;;;3.58;;
15035;SDS011;7615;48.574;13.474;2023-07-24T13:50:00;3.55;;;3.25;;
15035;SDS011;7615;48.574;13.474;2023-07-24T13:52:28;4.93;;;3.70;;
15035;SDS011;7615;48.574;13.474;2023-07-24T13:54:55;4.47;;;3.83;;
15035;SDS011;7615;48.574;13.474;2023-07-24T13:57:22;5.18;;;3.95;;
15035;SDS011;7615;48.574;13.474;2023-07-24T13:59:51;6.43;;;3.53;;
15035;SDS011;7615;48.574;13.474;2023-07-24T14:02:18;6.95;;;4.13;;
15035;SDS011;7615;48.574;13.474;2023-07-24T14:04:45;7.03;;;4.03;;
15035;SDS011;7615;48.574;13.474;2023-07-24T14:07:12;7.13;;;3.78;;
15035;SDS011;7615;48.574;13.474;2023-07-24T14:09:39;4.70;;;3.72;;
15035;SDS011;7615;48.574;13.474;2023-07-24T14:12:06;4.05;;;3.58;;
15035;SDS011;7615;48.574;13.474;2023-07-24T14:14:33;5.35;;;3.83;;
15035;SDS011;7615;48.574;13.474;2023-07-24T14:17:01;5.32;;;4.00;;
15035;SDS011;7615;48.574;13.474;2023-07-24T14:19:29;4.78;;;3.83;;
15035;SDS011;7615;48.574;13.474;2023-07-24T14:21:55;5.60;;;4.40;;
15035;SDS011;7615;48.574;13.474;2023-07-24T14:24:22;5.90;;;3.85;;
15035;SDS011;7615;48.574;13.474;2023-07-24T14:26:49;4.28;;;3.78;;
15035;SDS011;7615;48.574;13.474;2023-07-24T14:29:16;6.78;;;3.75;;
15035;SDS011;7615;48.574;13.474;2023-07-24T14:31:43;6.78;;;4.22;;
15035;SDS011;7615;48.574;13.474;2023-07-24T14:34:11;5.30;;;3.85;;
15035;SDS011;7615;48.574;13.474;2023-07-24T14:36:38;4.95;;;4.07;;
15035;SDS011;7615;48.574;13.474;2023-07-24T14:39:05;7.28;;;3.85;;
15035;SDS011;7615;48.574;13.474;2023-07-24T14:41:33;6.35;;;4.07;;
15035;SDS011;7615;48.574;13.474;2023-07-24T14:44:00;6.53;;;4.20;;
15035;SDS011;7615;48.574;13.474;2023-07-24T14:46:27;5.45;;;4.25;;
15035;SDS011;7615;48.574;13.474;2023-07-24T14:48:54;7.53;;;4.20;;